createdAt,value
2023-01-17T00:02:09.258Z,1.70
2023-01-17T00:04:54.565Z,1.40
2023-01-17T00:07:41.548Z,1.60
2023-01-17T00:10:17.003Z,1.53
2023-01-17T00:12:52.210Z,1.63
2023-01-17T00:15:23.440Z,1.40
2023-01-17T00:17:50.904Z,1.40
2023-01-17T00:20:42.148Z,1.50
2023-01-17T00:23:32.657Z,1.77
2023-01-17T00:26:05.439Z,1.60
2023-01-17T00:28:35.308Z,1.50
2023-01-17T00:31:02.825Z,1.57
2023-01-17T00:33:29.438Z,1.70
2023-01-17T00:35:57.946Z,1.40
2023-01-17T00:38:30.358Z,1.40
2023-01-17T00:41:12.165Z,1.40
2023-01-17T00:43:57.494Z,2.10
2023-01-17T00:46:43.060Z,1.60
2023-01-17T00:49:28.364Z,1.33
2023-01-17T00:52:13.920Z,1.47
2023-01-17T00:54:59.216Z,1.60
2023-01-17T00:57:44.562Z,1.40
2023-01-17T01:00:30.406Z,1.53
2023-01-17T01:03:15.823Z,1.53
2023-01-17T01:06:01.353Z,1.40
2023-01-17T01:08:48.199Z,1.50
2023-01-17T01:11:36.604Z,1.37
2023-01-17T01:14:26.125Z,1.40
2023-01-17T01:17:11.620Z,1.43
2023-01-17T01:19:57.053Z,1.47
2023-01-17T01:22:42.563Z,1.30
2023-01-17T01:25:27.880Z,1.60
2023-01-17T01:28:22.209Z,1.43
2023-01-17T01:31:07.571Z,1.47
2023-01-17T01:33:34.220Z,1.60
2023-01-17T01:36:00.797Z,1.43
2023-01-17T01:38:27.434Z,1.60
2023-01-17T01:40:56.533Z,1.60
2023-01-17T01:43:46.021Z,1.57
2023-01-17T01:46:18.072Z,1.40
2023-01-17T01:48:51.248Z,1.70
2023-01-17T01:51:25.976Z,1.70
2023-01-17T01:53:59.754Z,1.70
2023-01-17T01:56:27.618Z,1.70
2023-01-17T01:58:54.531Z,1.60
2023-01-17T02:01:21.256Z,1.30
2023-01-17T02:03:49.051Z,1.63
2023-01-17T02:06:32.353Z,1.57
2023-01-17T02:09:03.042Z,1.77
2023-01-17T02:11:30.601Z,1.80
2023-01-17T02:13:57.204Z,1.60
2023-01-17T02:16:45.514Z,1.60
2023-01-17T02:19:49.860Z,1.60
2023-01-17T02:23:18.453Z,1.83
2023-01-17T02:26:17.628Z,1.70
2023-01-17T02:29:10.811Z,1.70
2023-01-17T02:31:49.471Z,1.60
2023-01-17T02:34:33.552Z,1.40
2023-01-17T02:37:26.065Z,1.73
2023-01-17T02:40:04.719Z,1.50
2023-01-17T02:42:37.209Z,1.90
2023-01-17T02:45:04.829Z,1.60
2023-01-17T02:47:32.218Z,1.80
2023-01-17T02:50:07.500Z,1.70
2023-01-17T02:53:06.916Z,1.80
2023-01-17T02:55:54.288Z,1.70
2023-01-17T02:58:49.635Z,1.47
2023-01-17T03:01:30.181Z,1.70
2023-01-17T03:04:31.977Z,1.70
2023-01-17T03:07:04.279Z,1.83
2023-01-17T03:09:32.299Z,1.70
2023-01-17T03:11:59.796Z,1.70
2023-01-17T03:14:26.405Z,1.60
2023-01-17T03:16:53.212Z,1.70
2023-01-17T03:19:19.839Z,1.90
2023-01-17T03:21:46.409Z,1.60
2023-01-17T03:24:12.945Z,1.90
2023-01-17T03:26:39.543Z,1.80
2023-01-17T03:29:06.114Z,1.57
2023-01-17T03:31:32.733Z,1.67
2023-01-17T03:33:59.294Z,1.70
2023-01-17T03:36:25.839Z,1.80
2023-01-17T03:38:52.386Z,1.40
2023-01-17T03:41:19.010Z,1.50
2023-01-17T03:43:45.560Z,1.40
2023-01-17T03:46:23.423Z,1.60
2023-01-17T03:48:50.622Z,1.80
2023-01-17T03:51:17.559Z,1.60
2023-01-17T03:53:46.826Z,1.77
2023-01-17T03:56:14.073Z,1.67
2023-01-17T03:58:40.653Z,1.57
2023-01-17T04:01:07.254Z,1.70
2023-01-17T04:03:34.018Z,1.50
2023-01-17T04:06:00.792Z,1.60
2023-01-17T04:08:27.495Z,1.60
2023-01-17T04:10:54.063Z,1.53
2023-01-17T04:13:20.707Z,1.43
2023-01-17T04:15:50.126Z,1.80
2023-01-17T04:18:18.244Z,1.60
2023-01-17T04:20:45.162Z,1.30
2023-01-17T04:23:11.837Z,1.30
2023-01-17T04:25:38.805Z,1.30
2023-01-17T04:28:05.537Z,1.07
2023-01-17T04:30:33.273Z,1.13
2023-01-17T04:33:00.040Z,1.10
2023-01-17T04:35:26.813Z,1.20
2023-01-17T04:37:53.405Z,1.00
2023-01-17T04:40:20.026Z,1.10
2023-01-17T04:42:47.161Z,1.03
2023-01-17T04:45:14.708Z,0.90
2023-01-17T04:47:41.321Z,0.90
2023-01-17T04:50:09.865Z,1.10
2023-01-17T04:52:36.865Z,1.10
2023-01-17T04:55:03.712Z,1.00
2023-01-17T04:57:30.327Z,1.10
2023-01-17T04:59:56.963Z,0.90
2023-01-17T05:02:23.573Z,0.93
2023-01-17T05:04:50.231Z,1.10
2023-01-17T05:07:16.790Z,0.93
2023-01-17T05:09:43.831Z,0.90
2023-01-17T05:12:10.762Z,1.07
2023-01-17T05:14:37.359Z,0.90
2023-01-17T05:17:04.067Z,1.10
2023-01-17T05:19:30.673Z,0.90
2023-01-17T05:22:03.775Z,0.90
2023-01-17T05:24:31.187Z,1.00
2023-01-17T05:27:02.409Z,0.90
2023-01-17T05:29:30.215Z,0.90
2023-01-17T05:31:56.848Z,1.00
2023-01-17T05:34:23.661Z,1.90
2023-01-17T05:36:50.274Z,0.80
2023-01-17T05:39:16.871Z,1.20
2023-01-17T05:41:43.473Z,1.10
2023-01-17T05:44:10.267Z,1.07
2023-01-17T05:46:36.926Z,1.33
2023-01-17T05:49:03.717Z,1.30
2023-01-17T05:51:30.321Z,1.20
2023-01-17T05:53:56.854Z,1.30
2023-01-17T05:56:23.451Z,1.10
2023-01-17T05:58:50.036Z,1.30
2023-01-17T06:01:17.612Z,1.00
2023-01-17T06:03:44.178Z,1.40
2023-01-17T06:06:10.730Z,1.47
2023-01-17T06:08:37.358Z,1.63
2023-01-17T06:11:03.937Z,1.50
2023-01-17T06:13:30.519Z,1.40
2023-01-17T06:16:02.660Z,1.30
2023-01-17T06:18:30.547Z,1.43
2023-01-17T06:20:57.372Z,1.40
2023-01-17T06:23:24.946Z,1.40
2023-01-17T06:25:52.099Z,1.43
2023-01-17T06:28:23.142Z,1.60
2023-01-17T06:30:49.976Z,1.70
2023-01-17T06:33:16.852Z,1.43
2023-01-17T06:35:50.951Z,1.30
2023-01-17T06:38:17.880Z,1.53
2023-01-17T06:40:44.668Z,1.73
2023-01-17T06:43:11.265Z,1.43
2023-01-17T06:45:37.871Z,1.40
2023-01-17T06:48:05.448Z,1.30
2023-01-17T06:50:33.560Z,1.60
2023-01-17T06:53:04.829Z,1.53
2023-01-17T06:55:33.794Z,1.90
2023-01-17T06:58:02.613Z,2.00
2023-01-17T07:00:30.764Z,1.80
2023-01-17T07:02:57.832Z,1.87
2023-01-17T07:05:24.570Z,1.80
2023-01-17T07:07:51.377Z,2.07
2023-01-17T07:10:18.043Z,1.70
2023-01-17T07:12:44.746Z,1.97
2023-01-17T07:15:12.076Z,1.83
2023-01-17T07:17:39.377Z,1.70
2023-01-17T07:20:06.892Z,1.87
2023-01-17T07:22:33.514Z,1.87
2023-01-17T07:25:00.268Z,2.30
2023-01-17T07:27:30.173Z,1.60
2023-01-17T07:29:57.670Z,2.20
2023-01-17T07:32:26.515Z,1.90
2023-01-17T07:34:54.060Z,2.13
2023-01-17T07:37:20.667Z,1.80
2023-01-17T07:39:47.250Z,2.10
2023-01-17T07:42:13.812Z,1.83
2023-01-17T07:44:43.874Z,1.80
2023-01-17T07:47:10.933Z,1.67
2023-01-17T07:49:37.600Z,1.67
2023-01-17T07:52:06.433Z,1.90
2023-01-17T07:54:33.080Z,1.80
2023-01-17T07:56:59.672Z,2.20
2023-01-17T07:59:26.223Z,1.60
2023-01-17T08:01:53.216Z,1.93
2023-01-17T08:04:20.172Z,1.80
2023-01-17T08:06:48.691Z,1.60
2023-01-17T08:09:15.306Z,1.70
2023-01-17T08:11:41.919Z,1.83
2023-01-17T08:14:08.527Z,2.00
2023-01-17T08:16:35.200Z,1.80
2023-01-17T08:19:01.804Z,1.60
2023-01-17T08:21:28.532Z,1.70
2023-01-17T08:23:55.102Z,1.60
2023-01-17T08:26:22.381Z,1.47
2023-01-17T08:29:02.378Z,1.83
2023-01-17T08:31:31.740Z,1.60
2023-01-17T08:33:58.513Z,1.70
2023-01-17T08:36:25.938Z,2.17
2023-01-17T08:38:52.812Z,1.67
2023-01-17T08:41:20.891Z,1.83
2023-01-17T08:43:48.326Z,1.70
2023-01-17T08:46:15.146Z,1.53
2023-01-17T08:48:41.745Z,1.60
2023-01-17T08:51:08.504Z,1.60
2023-01-17T08:53:35.108Z,1.60
2023-01-17T08:56:03.009Z,1.53
2023-01-17T08:58:31.026Z,1.37
2023-01-17T09:01:05.749Z,1.60
2023-01-17T09:03:33.819Z,1.47
2023-01-17T09:06:08.926Z,1.80
2023-01-17T09:08:35.877Z,1.40
2023-01-17T09:11:11.167Z,1.40
2023-01-17T09:13:38.515Z,1.80
2023-01-17T09:16:05.993Z,1.30
2023-01-17T09:18:33.806Z,1.67
2023-01-17T09:21:10.017Z,1.10
2023-01-17T09:23:36.913Z,1.10
2023-01-17T09:26:03.518Z,1.20
2023-01-17T09:28:30.068Z,1.93
2023-01-17T09:30:56.760Z,1.00
2023-01-17T09:33:24.416Z,0.97
2023-01-17T09:35:51.034Z,1.10
2023-01-17T09:38:17.609Z,1.13
2023-01-17T09:40:47.365Z,1.30
2023-01-17T09:43:29.288Z,1.10
2023-01-17T09:45:55.930Z,0.80
2023-01-17T09:48:33.078Z,1.20
2023-01-17T09:51:04.509Z,1.10
2023-01-17T09:53:37.352Z,1.33
2023-01-17T09:56:10.832Z,0.90
2023-01-17T09:59:18.912Z,1.03
2023-01-17T10:02:03.585Z,1.20
2023-01-17T10:04:48.958Z,1.10
2023-01-17T10:07:42.000Z,1.50
2023-01-17T10:10:29.833Z,0.90
2023-01-17T10:13:16.429Z,1.00
2023-01-17T10:16:12.487Z,0.90
2023-01-17T10:19:11.392Z,0.90
2023-01-17T10:21:59.076Z,0.80
2023-01-17T10:24:55.242Z,0.70
2023-01-17T10:27:27.929Z,1.03
2023-01-17T10:29:54.583Z,0.80
2023-01-17T10:32:28.390Z,1.00
2023-01-17T10:34:55.180Z,1.10
2023-01-17T10:37:32.738Z,1.30
2023-01-17T10:40:13.982Z,1.10
2023-01-17T10:42:53.520Z,1.10
2023-01-17T10:45:28.287Z,1.10
2023-01-17T10:48:23.272Z,0.90
2023-01-17T10:51:01.376Z,0.80
2023-01-17T10:53:44.064Z,0.73
2023-01-17T10:56:14.517Z,1.10
2023-01-17T10:58:41.215Z,1.00
2023-01-17T11:01:16.961Z,0.80
2023-01-17T11:03:45.438Z,0.70
2023-01-17T11:06:23.982Z,0.70
2023-01-17T11:08:58.967Z,0.60
2023-01-17T11:11:31.919Z,0.77
2023-01-17T11:14:07.581Z,0.90
2023-01-17T11:16:35.809Z,0.93
2023-01-17T11:19:18.568Z,1.10
2023-01-17T11:21:53.851Z,1.20
2023-01-17T11:24:28.270Z,1.27
2023-01-17T11:26:55.400Z,1.00
2023-01-17T11:29:34.691Z,0.90
2023-01-17T11:32:21.289Z,1.20
2023-01-17T11:35:14.612Z,1.10
2023-01-17T11:37:53.207Z,1.27
2023-01-17T11:40:27.423Z,1.30
2023-01-17T11:43:20.571Z,1.50
2023-01-17T11:46:18.942Z,1.40
2023-01-17T11:48:54.422Z,1.30
2023-01-17T11:51:45.763Z,1.20
2023-01-17T11:54:27.621Z,1.20
2023-01-17T11:57:01.641Z,1.10
2023-01-17T11:59:38.061Z,1.17
2023-01-17T12:02:23.974Z,1.50
2023-01-17T12:05:34.263Z,1.50
2023-01-17T12:08:39.722Z,1.20
2023-01-17T12:11:14.235Z,1.30
2023-01-17T12:14:01.013Z,1.40
2023-01-17T12:17:13.987Z,1.20
2023-01-17T12:20:01.033Z,1.30
2023-01-17T12:23:17.790Z,1.50
2023-01-17T12:26:09.432Z,1.40
2023-01-17T12:29:04.109Z,1.80
2023-01-17T12:31:40.494Z,1.20
2023-01-17T12:34:10.059Z,2.27
2023-01-17T12:36:49.364Z,1.40
2023-01-17T12:39:17.551Z,1.43
2023-01-17T12:42:05.471Z,1.87
2023-01-17T12:44:52.039Z,1.73
2023-01-17T12:47:20.619Z,1.30
2023-01-17T12:50:02.022Z,1.13
2023-01-17T12:53:04.927Z,1.50
2023-01-17T12:55:55.525Z,1.40
2023-01-17T12:58:29.255Z,1.40
2023-01-17T13:01:08.673Z,1.27
2023-01-17T13:03:47.477Z,1.87
2023-01-17T13:06:32.778Z,1.70
2023-01-17T13:09:02.451Z,1.27
2023-01-17T13:11:45.915Z,1.80
2023-01-17T13:14:12.579Z,1.40
2023-01-17T13:16:58.605Z,1.87
2023-01-17T13:19:49.979Z,2.03
2023-01-17T13:22:21.820Z,1.57
2023-01-17T13:25:18.520Z,2.40
2023-01-17T13:28:22.954Z,1.87
2023-01-17T13:31:14.440Z,1.70
2023-01-17T13:34:14.621Z,2.03
2023-01-17T13:37:26.208Z,1.47
2023-01-17T13:40:22.671Z,1.37
2023-01-17T13:42:56.521Z,1.10
2023-01-17T13:45:28.065Z,1.10
2023-01-17T13:48:23.403Z,1.67
2023-01-17T13:50:55.639Z,1.47
2023-01-17T13:53:34.637Z,1.20
2023-01-17T13:56:06.991Z,1.80
2023-01-17T13:59:02.039Z,2.00
2023-01-17T14:01:38.805Z,1.30
2023-01-17T14:04:08.971Z,1.40
2023-01-17T14:06:46.602Z,1.47
2023-01-17T14:09:13.215Z,1.37
2023-01-17T14:12:07.059Z,1.17
2023-01-17T14:14:39.815Z,1.40
2023-01-17T14:17:25.769Z,1.13
2023-01-17T14:19:55.878Z,1.20
2023-01-17T14:22:27.680Z,1.40
2023-01-17T14:25:01.595Z,1.40
2023-01-17T14:27:31.968Z,1.23
2023-01-17T14:30:00.122Z,1.63
2023-01-17T14:32:35.242Z,1.50
2023-01-17T14:35:02.436Z,1.10
2023-01-17T14:37:31.902Z,1.50
2023-01-17T14:40:00.073Z,1.43
2023-01-17T14:42:29.479Z,1.20
2023-01-17T14:45:03.113Z,1.47
2023-01-17T14:47:32.348Z,1.77
2023-01-17T14:50:17.788Z,1.40
2023-01-17T14:52:47.243Z,1.70
2023-01-17T14:55:20.003Z,1.30
2023-01-17T14:57:56.766Z,1.30
2023-01-17T15:00:30.774Z,1.30
2023-01-17T15:03:02.208Z,1.40
2023-01-17T15:05:30.161Z,1.10
2023-01-17T15:07:57.990Z,1.17
2023-01-17T15:10:30.849Z,1.40
2023-01-17T15:13:05.477Z,1.50
2023-01-17T15:15:37.260Z,1.40
2023-01-17T15:18:21.953Z,1.47
2023-01-17T15:20:53.024Z,1.57
2023-01-17T15:23:21.747Z,1.40
2023-01-17T15:25:51.148Z,1.43
2023-01-17T15:28:18.460Z,1.50
2023-01-17T15:31:06.661Z,1.57
2023-01-17T15:33:35.010Z,1.93
2023-01-17T15:36:04.274Z,1.80
2023-01-17T15:38:38.569Z,1.53
2023-01-17T15:41:11.541Z,1.60
2023-01-17T15:43:40.010Z,1.80
2023-01-17T15:46:06.840Z,1.70
2023-01-17T15:48:44.857Z,1.90
2023-01-17T15:51:13.035Z,1.60
2023-01-17T15:53:42.650Z,1.40
2023-01-17T15:56:33.273Z,1.80
2023-01-17T15:59:27.724Z,1.80
2023-01-17T16:01:58.162Z,1.83
2023-01-17T16:04:33.478Z,2.10
2023-01-17T16:07:36.511Z,1.90
2023-01-17T16:10:20.478Z,1.67
2023-01-17T16:12:48.951Z,2.23
2023-01-17T16:15:18.345Z,1.73
2023-01-17T16:17:49.116Z,2.07
2023-01-17T16:20:23.088Z,2.87
2023-01-17T16:22:50.195Z,1.80
2023-01-17T16:25:22.758Z,1.90
2023-01-17T16:27:49.989Z,1.93
2023-01-17T16:30:19.068Z,1.50
2023-01-17T16:32:48.476Z,1.70
2023-01-17T16:35:22.714Z,1.80
2023-01-17T16:37:51.252Z,1.70
2023-01-17T16:40:19.517Z,2.70
2023-01-17T16:42:46.557Z,2.00
2023-01-17T16:45:13.827Z,1.90
2023-01-17T16:47:41.873Z,2.10
2023-01-17T16:50:10.376Z,1.97
2023-01-17T16:52:37.238Z,1.97
2023-01-17T16:55:10.064Z,2.30
2023-01-17T16:57:36.668Z,2.10
2023-01-17T17:00:05.354Z,2.00
2023-01-17T17:02:32.658Z,1.97
2023-01-17T17:04:59.628Z,2.30
2023-01-17T17:07:26.207Z,2.00
2023-01-17T17:09:52.791Z,1.90
2023-01-17T17:12:19.357Z,2.00
2023-01-17T17:14:45.914Z,2.13
2023-01-17T17:17:12.462Z,2.07
2023-01-17T17:19:39.020Z,2.00
2023-01-17T17:22:06.535Z,2.10
2023-01-17T17:24:33.527Z,2.50
2023-01-17T17:27:00.142Z,2.40
2023-01-17T17:29:26.723Z,3.60
2023-01-17T17:31:53.801Z,2.93
2023-01-17T17:34:22.385Z,2.40
2023-01-17T17:36:48.987Z,2.50
2023-01-17T17:39:15.763Z,2.30
2023-01-17T17:41:44.478Z,2.07
2023-01-17T17:44:11.454Z,1.93
2023-01-17T17:46:38.530Z,2.87
2023-01-17T17:49:06.689Z,2.33
2023-01-17T17:51:38.841Z,2.70
2023-01-17T17:54:08.059Z,2.67
2023-01-17T17:56:36.246Z,3.57
2023-01-17T17:59:04.932Z,4.83
2023-01-17T18:01:31.805Z,4.67
2023-01-17T18:04:02.216Z,3.10
2023-01-17T18:06:28.874Z,3.00
2023-01-17T18:08:55.474Z,2.80
2023-01-17T18:11:24.457Z,2.67
2023-01-17T18:13:52.355Z,2.50
2023-01-17T18:16:25.424Z,2.87
2023-01-17T18:18:54.470Z,2.50
2023-01-17T18:21:25.154Z,2.40
2023-01-17T18:23:54.420Z,3.20
2023-01-17T18:26:32.618Z,3.07
2023-01-17T18:29:00.666Z,2.90
2023-01-17T18:31:28.619Z,2.40
2023-01-17T18:33:56.975Z,3.47
2023-01-17T18:36:25.601Z,3.10
2023-01-17T18:38:52.457Z,2.83
2023-01-17T18:41:21.739Z,2.73
2023-01-17T18:43:48.561Z,4.03
2023-01-17T18:46:16.377Z,3.47
2023-01-17T18:48:43.399Z,3.57
2023-01-17T18:51:15.640Z,4.33
2023-01-17T18:53:44.172Z,3.47
2023-01-17T18:56:13.830Z,6.47
2023-01-17T18:58:43.489Z,5.10
2023-01-17T19:01:18.596Z,5.10
2023-01-17T19:03:47.504Z,3.70
2023-01-17T19:06:20.304Z,3.57
2023-01-17T19:08:49.175Z,3.70
2023-01-17T19:11:15.756Z,3.20
2023-01-17T19:13:42.492Z,3.03
2023-01-17T19:16:13.485Z,2.77
2023-01-17T19:18:40.199Z,3.60
2023-01-17T19:21:15.207Z,4.70
2023-01-17T19:23:43.461Z,5.10
2023-01-17T19:26:11.517Z,8.03
2023-01-17T19:28:43.031Z,7.20
2023-01-17T19:31:12.899Z,6.80
2023-01-17T19:33:42.072Z,6.13
2023-01-17T19:36:11.667Z,6.10
2023-01-17T19:38:38.346Z,6.57
2023-01-17T19:41:27.146Z,5.60
2023-01-17T19:43:58.971Z,5.47
2023-01-17T19:46:27.297Z,8.43
2023-01-17T19:48:55.417Z,6.63
2023-01-17T19:51:23.769Z,5.00
2023-01-17T19:53:50.527Z,5.20
2023-01-17T19:56:20.027Z,5.27
2023-01-17T19:58:47.684Z,5.80
2023-01-17T20:01:17.308Z,4.93
2023-01-17T20:03:45.271Z,4.50
2023-01-17T20:06:14.671Z,5.13
2023-01-17T20:08:41.578Z,4.97
2023-01-17T20:11:14.687Z,5.27
2023-01-17T20:13:42.082Z,5.23
2023-01-17T20:16:11.550Z,5.37
2023-01-17T20:18:38.383Z,5.60
2023-01-17T20:21:10.928Z,6.50
2023-01-17T20:23:39.349Z,5.77
2023-01-17T20:26:06.255Z,5.43
2023-01-17T20:28:35.140Z,7.10
2023-01-17T20:31:12.618Z,6.50
2023-01-17T20:33:40.634Z,6.70
2023-01-17T20:36:11.109Z,7.97
2023-01-17T20:38:44.907Z,7.80
2023-01-17T20:41:12.649Z,7.03
2023-01-17T20:43:39.403Z,6.33
2023-01-17T20:46:06.890Z,7.87
2023-01-17T20:48:33.926Z,6.97
2023-01-17T20:51:05.739Z,6.67
2023-01-17T20:53:34.797Z,7.47
2023-01-17T20:56:01.680Z,8.50
2023-01-17T20:58:28.956Z,7.90
2023-01-17T21:00:56.177Z,7.57
2023-01-17T21:03:24.036Z,7.13
2023-01-17T21:06:01.983Z,7.53
2023-01-17T21:08:33.602Z,7.50
2023-01-17T21:11:00.955Z,7.57
2023-01-17T21:13:27.769Z,7.53
2023-01-17T21:15:54.361Z,7.03
2023-01-17T21:18:23.755Z,6.70
2023-01-17T21:20:50.707Z,7.03
2023-01-17T21:23:20.507Z,7.80
2023-01-17T21:25:55.559Z,7.33
2023-01-17T21:28:28.584Z,7.27
2023-01-17T21:30:55.723Z,7.27
2023-01-17T21:33:23.821Z,6.93
2023-01-17T21:35:50.611Z,7.43
2023-01-17T21:38:17.613Z,7.47
2023-01-17T21:40:44.763Z,15.90
2023-01-17T21:43:11.552Z,9.07
2023-01-17T21:45:42.068Z,13.17
2023-01-17T21:48:14.536Z,11.20
2023-01-17T21:50:41.129Z,14.87
2023-01-17T21:53:09.968Z,8.53
2023-01-17T21:55:56.362Z,8.67
2023-01-17T21:58:41.765Z,7.73
2023-01-17T22:01:21.607Z,7.60
2023-01-17T22:03:52.744Z,7.73
2023-01-17T22:06:20.804Z,7.77
2023-01-17T22:08:47.631Z,7.63
2023-01-17T22:11:16.581Z,8.73
2023-01-17T22:13:44.456Z,18.57
2023-01-17T22:16:14.058Z,14.60
2023-01-17T22:18:42.657Z,13.63
2023-01-17T22:21:14.862Z,14.60
2023-01-17T22:23:46.524Z,7.80
2023-01-17T22:26:13.429Z,7.50
2023-01-17T22:28:40.885Z,7.00
2023-01-17T22:31:14.793Z,6.90
2023-01-17T22:33:44.296Z,7.43
2023-01-17T22:36:15.042Z,7.33
2023-01-17T22:38:42.942Z,6.67
2023-01-17T22:41:16.052Z,9.20
2023-01-17T22:43:44.827Z,8.17
2023-01-17T22:46:13.583Z,11.83
2023-01-17T22:48:41.427Z,14.60
2023-01-17T22:51:10.513Z,10.10
2023-01-17T22:53:41.669Z,7.63
2023-01-17T22:56:12.118Z,7.70
2023-01-17T22:58:42.058Z,8.10
2023-01-17T23:01:10.221Z,7.27
2023-01-17T23:03:44.665Z,6.80
2023-01-17T23:06:12.772Z,7.10
2023-01-17T23:08:41.995Z,6.90
2023-01-17T23:11:43.751Z,7.17
2023-01-17T23:14:17.707Z,7.53
2023-01-17T23:17:08.921Z,7.70
2023-01-17T23:19:38.235Z,7.40
2023-01-17T23:22:16.426Z,7.30
2023-01-17T23:24:47.555Z,7.63
2023-01-17T23:27:36.132Z,8.87
2023-01-17T23:30:08.776Z,9.80
2023-01-17T23:32:35.433Z,8.60
2023-01-17T23:35:02.029Z,8.60
2023-01-17T23:37:50.775Z,7.80
2023-01-17T23:40:18.167Z,8.53
2023-01-17T23:43:03.385Z,8.60
2023-01-17T23:45:30.068Z,7.50
2023-01-17T23:47:56.676Z,7.57
2023-01-17T23:50:23.271Z,7.40
2023-01-17T23:52:49.833Z,7.80
2023-01-17T23:55:16.425Z,7.53
2023-01-17T23:57:42.989Z,7.67
